Galesburg, Illinois
Current Conditions -  °F | °C
As of 10:15 PM on Wednesday 17 Dec 2014 (Local Time) from KGBG Reporting Station
Clear Clear  
Wind Chill: 17°   Ceiling: Unl
Heat Index: 17°   Visibility: 10mi
Dew Point: 14°   Wind: 0mph
Humidity: 91%   Direction: NA
Pressure: 30.31"   Gusts: NA
Location:  40.95°N, 90.36°W
Report Text: KGBG 180415Z AUTO 00000KT 10SM CLR M09/M10 A3031 RMK AO2 T10861098
Loading
Personal Weather Stations






























Interactive Weather Map New forecast layout! Learn more

10-Day Weather Forecast

Advertisements
Track Severe Weather on mobile